Lee Mont, Virginia
Current Conditions -  °F | °C
As of 5:35 AM on Tuesday 27 Jan 2015 (Local Time) from KMFV Reporting Station
Overcast Overcast  
Wind Chill: 21°   Ceiling: 1200
Heat Index: 30°   Visibility: 10mi
Dew Point: 27°   Wind: 12mph
Humidity: 86%   Direction: 350°N
Pressure: 29.67"   Gusts: 25mph
Location:  37.779°N, 75.6343°W
Report Text: KMFV 271035Z AUTO 35010G22KT 10SM OVC012 M01/M03 A2967 RMK AO2
Loading
Personal Weather Stations






























Interactive Weather Map New forecast layout! Learn more

10-Day Weather Forecast

Advertisements
Track Severe Weather on mobile